createdAt,value
2022-10-18T00:02:09.690Z,19.73
2022-10-18T00:04:36.531Z,22.17
2022-10-18T00:07:03.006Z,36.40
2022-10-18T00:09:29.763Z,60.33
2022-10-18T00:11:56.923Z,73.55
2022-10-18T00:14:23.560Z,25.10
2022-10-18T00:16:49.887Z,60.03
2022-10-18T00:19:16.226Z,40.97
2022-10-18T00:21:46.030Z,28.27
2022-10-18T00:24:12.400Z,62.08
2022-10-18T00:26:38.764Z,28.02
2022-10-18T00:29:05.846Z,35.87
2022-10-18T00:31:37.721Z,42.17
2022-10-18T00:34:06.808Z,23.73
2022-10-18T00:36:34.394Z,21.27
2022-10-18T00:39:02.512Z,25.23
2022-10-18T00:41:31.788Z,60.40
2022-10-18T00:44:04.334Z,26.38
2022-10-18T00:46:32.998Z,26.02
2022-10-18T00:49:02.304Z,42.72
2022-10-18T00:51:33.815Z,27.95
2022-10-18T00:54:00.411Z,9.57
2022-10-18T00:56:26.944Z,22.70
2022-10-18T00:58:53.916Z,37.95
2022-10-18T01:01:23.232Z,44.58
2022-10-18T01:03:53.069Z,49.25
2022-10-18T01:06:19.622Z,40.40
2022-10-18T01:09:07.151Z,29.20
2022-10-18T01:11:43.102Z,29.35
2022-10-18T01:14:21.276Z,19.85
2022-10-18T01:16:53.041Z,11.18
2022-10-18T01:19:57.640Z,17.63
2022-10-18T01:22:28.979Z,59.88
2022-10-18T01:25:05.085Z,73.57
2022-10-18T01:28:02.607Z,84.55
2022-10-18T01:30:53.854Z,100.53
2022-10-18T01:33:28.680Z,79.33
2022-10-18T01:36:14.035Z,72.65
2022-10-18T01:38:42.371Z,79.53
2022-10-18T01:41:14.855Z,42.65
2022-10-18T01:43:45.236Z,40.33
2022-10-18T01:46:13.416Z,40.73
2022-10-18T01:48:39.890Z,38.25
2022-10-18T01:51:06.291Z,42.53
2022-10-18T01:53:34.676Z,48.22
2022-10-18T01:56:31.306Z,64.53
2022-10-18T01:59:36.434Z,48.10
2022-10-18T02:02:07.616Z,37.35
2022-10-18T02:05:01.424Z,53.22
2022-10-18T02:07:34.409Z,60.63
2022-10-18T02:10:18.094Z,30.50
2022-10-18T02:12:46.671Z,18.60
2022-10-18T02:15:16.681Z,20.38
2022-10-18T02:17:45.159Z,66.18
2022-10-18T02:20:14.704Z,14.35
2022-10-18T02:22:45.755Z,25.35
2022-10-18T02:25:19.442Z,25.67
2022-10-18T02:27:46.115Z,26.00
2022-10-18T02:30:13.006Z,46.70
2022-10-18T02:32:50.194Z,75.72
2022-10-18T02:35:29.488Z,42.65
2022-10-18T02:37:58.064Z,14.17
2022-10-18T02:40:25.333Z,29.88
2022-10-18T02:42:57.806Z,45.55
2022-10-18T02:45:25.548Z,50.75
2022-10-18T02:47:53.057Z,14.15
2022-10-18T02:50:19.420Z,30.80
2022-10-18T02:52:45.782Z,31.23
2022-10-18T02:55:12.236Z,24.77
2022-10-18T02:57:38.658Z,34.08
2022-10-18T03:00:06.197Z,15.50
2022-10-18T03:02:32.638Z,76.27
2022-10-18T03:04:59.012Z,41.30
2022-10-18T03:07:25.403Z,32.47
2022-10-18T03:09:51.760Z,25.75
2022-10-18T03:12:18.339Z,28.92
2022-10-18T03:14:44.688Z,46.00
2022-10-18T03:17:11.162Z,49.17
2022-10-18T03:19:38.670Z,66.68
2022-10-18T03:22:05.685Z,54.33
2022-10-18T03:24:32.377Z,48.50
2022-10-18T03:26:58.763Z,85.37
2022-10-18T03:29:25.083Z,93.57
2022-10-18T03:31:51.385Z,127.68
2022-10-18T03:34:17.855Z,85.63
2022-10-18T03:36:44.266Z,31.17
2022-10-18T03:39:12.311Z,7.13
2022-10-18T03:41:38.684Z,27.40
2022-10-18T03:44:05.171Z,45.38
2022-10-18T03:46:31.536Z,38.35
2022-10-18T03:48:57.927Z,13.80
2022-10-18T03:51:24.285Z,28.17
2022-10-18T03:53:50.592Z,20.38
2022-10-18T03:56:16.887Z,2.47
2022-10-18T03:58:43.204Z,4.18
2022-10-18T04:01:09.604Z,8.32
2022-10-18T04:03:35.965Z,20.83
2022-10-18T04:06:03.552Z,92.78
2022-10-18T04:08:30.460Z,88.40
2022-10-18T04:10:56.798Z,61.05
2022-10-18T04:13:23.167Z,149.73
2022-10-18T04:15:49.481Z,233.40
2022-10-18T04:18:15.778Z,205.10
2022-10-18T04:20:42.137Z,29.20
2022-10-18T04:23:08.446Z,41.70
2022-10-18T04:25:34.856Z,8.27
2022-10-18T04:28:01.306Z,67.23
2022-10-18T04:30:27.628Z,29.42
2022-10-18T04:32:53.930Z,30.10
2022-10-18T04:35:24.314Z,15.68
2022-10-18T04:37:50.850Z,46.42
2022-10-18T04:40:17.384Z,73.80
2022-10-18T04:42:43.703Z,32.30
2022-10-18T04:45:10.458Z,15.57
2022-10-18T04:47:36.785Z,28.45
2022-10-18T04:50:04.674Z,52.85
2022-10-18T04:52:31.332Z,31.07
2022-10-18T04:54:57.650Z,35.92
2022-10-18T04:57:24.078Z,22.10
2022-10-18T04:59:50.391Z,10.07
2022-10-18T05:02:16.755Z,17.08
2022-10-18T05:04:43.088Z,30.63
2022-10-18T05:07:09.436Z,14.93
2022-10-18T05:09:35.812Z,7.22
2022-10-18T05:12:02.121Z,11.00
2022-10-18T05:14:28.438Z,8.07
2022-10-18T05:16:54.777Z,31.53
2022-10-18T05:19:21.165Z,12.93
2022-10-18T05:21:47.478Z,11.82
2022-10-18T05:24:13.829Z,6.65
2022-10-18T05:26:40.283Z,14.15
2022-10-18T05:29:06.740Z,11.30
2022-10-18T05:31:33.142Z,5.85
2022-10-18T05:33:59.474Z,2.05
2022-10-18T05:36:26.128Z,10.63
2022-10-18T05:38:53.492Z,6.20
2022-10-18T05:41:19.919Z,8.40
2022-10-18T05:43:46.219Z,7.25
2022-10-18T05:46:15.322Z,2.38
2022-10-18T05:48:44.063Z,4.53
2022-10-18T05:51:10.526Z,29.35
2022-10-18T05:53:38.053Z,7.23
2022-10-18T05:56:05.544Z,7.72
2022-10-18T05:58:32.049Z,14.88
2022-10-18T06:01:00.786Z,26.75
2022-10-18T06:03:36.239Z,7.53
2022-10-18T06:06:05.396Z,10.10
2022-10-18T06:08:32.324Z,10.90
2022-10-18T06:10:58.837Z,9.48
2022-10-18T06:13:25.223Z,26.70
2022-10-18T06:15:56.328Z,8.82
2022-10-18T06:18:22.646Z,16.70
2022-10-18T06:20:48.954Z,18.48
2022-10-18T06:23:15.285Z,10.25
2022-10-18T06:25:41.598Z,4.13
2022-10-18T06:28:10.177Z,4.90
2022-10-18T06:30:38.444Z,8.60
2022-10-18T06:33:04.768Z,9.75
2022-10-18T06:35:31.106Z,8.93
2022-10-18T06:37:57.587Z,15.88
2022-10-18T06:40:24.015Z,11.95
2022-10-18T06:43:00.043Z,12.80
2022-10-18T06:45:27.102Z,32.50
2022-10-18T06:47:53.411Z,21.70
2022-10-18T06:50:19.703Z,8.90
2022-10-18T06:52:46.869Z,10.88
2022-10-18T06:55:13.380Z,11.77
2022-10-18T06:57:39.856Z,8.43
2022-10-18T07:00:06.679Z,12.70
2022-10-18T07:02:33.384Z,10.07
2022-10-18T07:04:59.848Z,21.52
2022-10-18T07:07:26.187Z,29.23
2022-10-18T07:09:52.563Z,11.70
2022-10-18T07:12:18.910Z,5.03
2022-10-18T07:14:46.188Z,10.30
2022-10-18T07:17:12.508Z,24.38
2022-10-18T07:19:38.872Z,21.47
2022-10-18T07:22:05.173Z,9.25
2022-10-18T07:27:02.807Z,13.05
2022-10-18T07:29:29.215Z,15.45
2022-10-18T07:31:55.580Z,9.33
2022-10-18T07:34:21.937Z,17.45
2022-10-18T07:36:48.336Z,9.55
2022-10-18T07:39:15.117Z,20.00
2022-10-18T07:41:41.433Z,22.63
2022-10-18T07:44:07.798Z,15.30
2022-10-18T07:46:34.140Z,25.65
2022-10-18T07:49:00.551Z,16.63
2022-10-18T07:51:28.050Z,30.75
2022-10-18T07:53:54.385Z,20.95
2022-10-18T07:56:21.813Z,49.20
2022-10-18T07:58:53.527Z,38.83
2022-10-18T08:01:21.442Z,20.40
2022-10-18T08:03:47.810Z,20.05
2022-10-18T08:06:18.507Z,29.02
2022-10-18T08:08:45.520Z,6.70
2022-10-18T08:11:15.737Z,20.35
2022-10-18T08:13:43.006Z,7.88
2022-10-18T08:16:12.347Z,33.40
2022-10-18T08:18:39.298Z,28.50
2022-10-18T08:21:09.013Z,35.97
2022-10-18T08:23:35.812Z,34.00
2022-10-18T08:26:03.721Z,30.92
2022-10-18T08:28:30.150Z,33.28
2022-10-18T08:30:56.542Z,8.93
2022-10-18T08:33:23.612Z,11.40
2022-10-18T08:36:01.083Z,9.20
2022-10-18T08:38:31.364Z,14.25
2022-10-18T08:41:23.494Z,25.95
2022-10-18T08:44:04.695Z,18.27
2022-10-18T08:46:36.916Z,18.30
2022-10-18T08:49:05.419Z,16.38
2022-10-18T08:51:45.263Z,20.05
2022-10-18T08:54:18.566Z,8.88
2022-10-18T08:56:52.715Z,7.55
2022-10-18T08:59:23.234Z,3.87
2022-10-18T09:02:04.450Z,5.82
2022-10-18T09:05:01.662Z,4.75
2022-10-18T09:07:51.546Z,3.35
2022-10-18T09:10:33.814Z,2.90
2022-10-18T09:13:18.943Z,3.93
2022-10-18T09:15:51.222Z,4.88
2022-10-18T09:18:36.521Z,3.53
2022-10-18T09:21:41.502Z,3.67
2022-10-18T09:24:26.583Z,6.00
2022-10-18T09:26:59.310Z,4.77
2022-10-18T09:29:47.171Z,3.40
2022-10-18T09:32:39.023Z,2.95
2022-10-18T09:35:48.893Z,5.13
2022-10-18T09:38:21.477Z,5.75
2022-10-18T09:40:54.967Z,5.33
2022-10-18T09:43:25.726Z,5.57
2022-10-18T09:45:54.382Z,4.63
2022-10-18T09:48:33.829Z,4.47
2022-10-18T09:51:17.528Z,6.63
2022-10-18T09:54:02.090Z,4.40
2022-10-18T09:56:52.222Z,5.20
2022-10-18T09:59:31.159Z,9.10
2022-10-18T10:01:57.544Z,4.53
2022-10-18T10:04:23.836Z,5.55
2022-10-18T10:06:52.240Z,6.37
2022-10-18T10:09:25.591Z,4.90
2022-10-18T10:11:52.259Z,7.95
2022-10-18T10:14:23.640Z,2.92
2022-10-18T10:17:29.617Z,3.20
2022-10-18T10:19:57.827Z,5.17
2022-10-18T10:22:35.116Z,9.63
2022-10-18T10:25:02.040Z,4.13
2022-10-18T10:27:43.272Z,6.07
2022-10-18T10:30:37.343Z,4.35
2022-10-18T10:33:05.504Z,2.83
2022-10-18T10:35:49.003Z,1.90
2022-10-18T10:38:24.631Z,4.57
2022-10-18T10:40:51.246Z,3.63
2022-10-18T10:43:39.344Z,3.90
2022-10-18T10:46:15.595Z,9.93
2022-10-18T10:48:57.062Z,2.58
2022-10-18T10:51:36.419Z,3.50
2022-10-18T10:54:17.594Z,4.00
2022-10-18T10:57:02.345Z,2.17
2022-10-18T10:59:44.271Z,2.83
2022-10-18T11:02:13.851Z,3.95
2022-10-18T11:04:41.137Z,3.83
2022-10-18T11:07:27.715Z,4.35
2022-10-18T11:09:59.966Z,1.80
2022-10-18T11:12:34.159Z,4.43
2022-10-18T11:15:10.259Z,2.85
2022-10-18T11:17:44.043Z,4.25
2022-10-18T11:20:24.663Z,2.17
2022-10-18T11:22:56.763Z,4.90
2022-10-18T11:25:28.830Z,5.07
2022-10-18T11:28:04.205Z,3.83
2022-10-18T11:30:46.144Z,2.85
2022-10-18T11:33:49.442Z,2.47
2022-10-18T11:37:22.994Z,5.40
2022-10-18T11:40:00.779Z,4.40
2022-10-18T11:42:30.147Z,3.15
2022-10-18T11:45:18.385Z,5.72
2022-10-18T11:47:56.096Z,4.97
2022-10-18T11:50:54.077Z,3.45
2022-10-18T11:53:41.747Z,2.03
2022-10-18T11:56:32.042Z,4.45
2022-10-18T11:59:17.609Z,2.70
2022-10-18T12:01:51.772Z,3.97
2022-10-18T12:04:22.395Z,2.05
2022-10-18T12:06:51.989Z,5.10
2022-10-18T12:09:38.914Z,6.63
2022-10-18T12:12:16.348Z,5.10
2022-10-18T12:14:49.104Z,6.82
2022-10-18T12:17:49.923Z,5.07
2022-10-18T12:20:23.202Z,3.27
2022-10-18T12:22:57.007Z,5.05
2022-10-18T12:25:24.368Z,6.20
2022-10-18T12:28:08.700Z,3.13
2022-10-18T12:30:46.055Z,5.63
2022-10-18T12:33:28.371Z,5.43
2022-10-18T12:36:13.950Z,1.63
2022-10-18T12:38:45.319Z,2.53
2022-10-18T12:41:25.030Z,3.28
2022-10-18T12:43:55.407Z,4.90
2022-10-18T12:46:22.086Z,4.40
2022-10-18T12:49:04.313Z,3.20
2022-10-18T12:51:31.206Z,1.85
2022-10-18T12:54:00.473Z,7.40
2022-10-18T12:56:30.118Z,11.77
2022-10-18T12:59:28.880Z,4.97
2022-10-18T13:01:55.289Z,3.20
2022-10-18T13:04:27.750Z,6.00
2022-10-18T13:06:57.142Z,5.15
2022-10-18T13:09:29.608Z,4.78
2022-10-18T13:12:18.847Z,4.43
2022-10-18T13:15:24.091Z,1.55
2022-10-18T13:18:04.136Z,4.53
2022-10-18T13:20:56.228Z,2.05
2022-10-18T13:23:42.975Z,1.95
2022-10-18T13:26:31.947Z,4.20
2022-10-18T13:29:15.270Z,1.05
2022-10-18T13:31:47.503Z,4.32
2022-10-18T13:34:33.075Z,1.15
2022-10-18T13:37:18.508Z,2.53
2022-10-18T13:39:45.123Z,2.13
2022-10-18T13:42:14.397Z,2.58
2022-10-18T13:44:43.498Z,2.90
2022-10-18T13:47:13.150Z,4.68
2022-10-18T13:49:39.447Z,1.55
2022-10-18T13:52:43.062Z,5.80
2022-10-18T13:55:21.478Z,1.48
2022-10-18T13:57:47.693Z,2.25
2022-10-18T14:00:48.788Z,3.25
2022-10-18T14:04:03.215Z,4.00
2022-10-18T14:06:43.532Z,4.03
2022-10-18T14:12:21.430Z,2.97
2022-10-18T14:15:01.922Z,2.08
2022-10-18T14:17:35.050Z,6.43
2022-10-18T14:20:14.531Z,3.60
2022-10-18T14:22:47.933Z,7.45
2022-10-18T14:25:27.288Z,11.63
2022-10-18T14:28:31.497Z,3.42
2022-10-18T14:31:19.988Z,3.63
2022-10-18T14:33:57.032Z,7.30
2022-10-18T14:36:27.024Z,5.82
2022-10-18T14:38:59.179Z,3.58
2022-10-18T14:41:27.870Z,11.73
2022-10-18T14:44:15.601Z,5.47
2022-10-18T14:46:47.757Z,6.93
2022-10-18T14:49:14.991Z,7.68
2022-10-18T14:51:43.463Z,13.13
2022-10-18T14:54:32.403Z,5.75
2022-10-18T14:57:00.353Z,3.45
2022-10-18T14:59:29.808Z,3.40
2022-10-18T15:02:00.236Z,10.10
2022-10-18T15:04:33.121Z,6.93
2022-10-18T15:07:05.829Z,6.32
2022-10-18T15:09:35.509Z,13.98
2022-10-18T15:12:07.049Z,8.10
2022-10-18T15:14:34.688Z,4.38
2022-10-18T15:17:34.172Z,2.80
2022-10-18T15:20:06.205Z,2.67
2022-10-18T15:22:33.530Z,7.97
2022-10-18T15:25:05.850Z,3.30
2022-10-18T15:27:36.743Z,3.47
2022-10-18T15:30:10.905Z,6.50
2022-10-18T15:32:37.792Z,2.70
2022-10-18T15:35:14.161Z,5.40
2022-10-18T15:37:43.994Z,5.07
2022-10-18T15:40:34.079Z,6.60
2022-10-18T15:43:25.374Z,5.70
2022-10-18T15:45:58.771Z,3.33
2022-10-18T15:48:39.708Z,4.53
2022-10-18T15:51:32.650Z,2.73
2022-10-18T15:53:58.955Z,5.82
2022-10-18T15:56:34.954Z,6.65
2022-10-18T15:59:04.723Z,5.18
2022-10-18T16:01:36.269Z,4.70
2022-10-18T16:04:09.063Z,5.07
2022-10-18T16:06:38.441Z,5.03
2022-10-18T16:09:05.301Z,3.95
2022-10-18T16:11:31.631Z,3.75
2022-10-18T16:14:00.349Z,4.90
2022-10-18T16:16:28.839Z,5.87
2022-10-18T16:18:56.367Z,2.15
2022-10-18T16:21:32.831Z,4.85
2022-10-18T16:23:59.574Z,4.40
2022-10-18T16:26:27.334Z,7.00
2022-10-18T16:28:55.215Z,5.17
2022-10-18T16:31:24.807Z,3.80
2022-10-18T16:33:52.560Z,3.55
2022-10-18T16:36:24.823Z,2.22
2022-10-18T16:38:51.442Z,12.10
2022-10-18T16:41:18.267Z,3.23
2022-10-18T16:43:46.582Z,6.60
2022-10-18T16:46:20.857Z,11.75
2022-10-18T16:48:49.027Z,8.27
2022-10-18T16:51:15.791Z,7.32
2022-10-18T16:53:42.251Z,5.37
2022-10-18T16:56:20.833Z,4.88
2022-10-18T16:58:47.721Z,10.38
2022-10-18T17:01:16.552Z,8.23
2022-10-18T17:03:43.285Z,12.15
2022-10-18T17:06:32.062Z,6.07
2022-10-18T17:08:59.538Z,6.60
2022-10-18T17:11:28.184Z,6.97
2022-10-18T17:13:55.039Z,8.70
2022-10-18T17:19:02.195Z,5.73
2022-10-18T17:21:29.542Z,11.70
2022-10-18T17:24:04.482Z,8.82
2022-10-18T17:26:31.476Z,9.52
2022-10-18T17:29:00.762Z,6.97
2022-10-18T17:31:28.203Z,7.40
2022-10-18T17:33:55.241Z,7.15
2022-10-18T17:36:22.250Z,5.82
2022-10-18T17:38:52.895Z,4.28
2022-10-18T17:41:19.694Z,4.45
2022-10-18T17:43:47.854Z,5.80
2022-10-18T17:46:14.346Z,7.80
2022-10-18T17:48:41.925Z,9.73
2022-10-18T17:51:09.867Z,8.75
2022-10-18T17:53:36.309Z,8.70
2022-10-18T17:56:04.410Z,11.53
2022-10-18T17:58:31.353Z,15.57
2022-10-18T18:00:58.465Z,10.48
2022-10-18T18:03:24.880Z,8.27
2022-10-18T18:05:51.195Z,14.65
2022-10-18T18:08:17.545Z,11.10
2022-10-18T18:10:43.909Z,7.13
2022-10-18T18:13:10.272Z,7.18
2022-10-18T18:15:36.604Z,6.22
2022-10-18T18:18:03.047Z,5.60
2022-10-18T18:20:29.443Z,6.93
2022-10-18T18:22:55.788Z,6.22
2022-10-18T18:25:22.096Z,9.15
2022-10-18T18:27:48.388Z,5.93
2022-10-18T18:30:17.558Z,9.95
2022-10-18T18:32:43.892Z,15.27
2022-10-18T18:35:10.194Z,23.50
2022-10-18T18:37:36.499Z,28.75
2022-10-18T18:40:03.065Z,17.50
2022-10-18T18:42:29.403Z,16.40
2022-10-18T18:44:55.754Z,17.77
2022-10-18T18:47:23.275Z,18.02
2022-10-18T18:49:51.360Z,12.27
2022-10-18T18:52:17.687Z,13.40
2022-10-18T18:54:44.125Z,6.65
2022-10-18T18:57:10.489Z,10.40
2022-10-18T18:59:36.876Z,6.63
2022-10-18T19:02:03.240Z,6.47
2022-10-18T19:04:29.692Z,4.78
2022-10-18T19:06:55.989Z,5.03
2022-10-18T19:09:22.892Z,7.90
2022-10-18T19:11:52.777Z,4.22
2022-10-18T19:14:19.604Z,8.32
2022-10-18T19:16:49.877Z,6.28
2022-10-18T19:19:21.551Z,6.47
2022-10-18T19:21:53.423Z,10.03
2022-10-18T19:24:21.003Z,2.08
2022-10-18T19:26:52.179Z,6.82
2022-10-18T19:29:28.998Z,2.45
2022-10-18T19:31:57.562Z,4.80
2022-10-18T19:34:25.879Z,5.07
2022-10-18T19:36:52.723Z,4.82
2022-10-18T19:39:24.718Z,2.75
2022-10-18T19:41:55.087Z,7.18
2022-10-18T19:44:23.029Z,6.30
2022-10-18T19:46:50.844Z,7.20
2022-10-18T19:49:17.358Z,6.88
2022-10-18T19:51:43.975Z,2.47
2022-10-18T19:54:14.739Z,1.77
2022-10-18T19:56:41.811Z,6.60
2022-10-18T19:59:08.735Z,4.73
2022-10-18T20:01:36.112Z,4.60
2022-10-18T20:04:06.540Z,6.05
2022-10-18T20:06:33.266Z,9.45
2022-10-18T20:08:59.702Z,6.97
2022-10-18T20:11:28.786Z,4.27
2022-10-18T20:13:56.346Z,1.90
2022-10-18T20:16:28.094Z,3.25
2022-10-18T20:18:59.781Z,2.00
2022-10-18T20:21:28.226Z,4.25
2022-10-18T20:23:54.944Z,3.07
2022-10-18T20:26:21.842Z,3.67
2022-10-18T20:28:56.169Z,4.13
2022-10-18T20:31:29.057Z,11.23
2022-10-18T20:34:01.651Z,7.05
2022-10-18T20:36:29.548Z,3.50
2022-10-18T20:38:56.331Z,1.85
2022-10-18T20:41:30.752Z,7.53
2022-10-18T20:43:59.310Z,3.58
2022-10-18T20:46:27.129Z,2.22
2022-10-18T20:48:54.219Z,6.47
2022-10-18T20:51:21.933Z,1.95
2022-10-18T20:53:49.311Z,9.43
2022-10-18T20:56:20.142Z,5.40
2022-10-18T20:58:50.327Z,4.13
2022-10-18T21:01:19.406Z,10.10
2022-10-18T21:03:47.949Z,10.68
2022-10-18T21:06:16.764Z,10.73
2022-10-18T21:08:44.646Z,4.30
2022-10-18T21:11:12.130Z,11.05
2022-10-18T21:13:40.662Z,6.07
2022-10-18T21:16:07.847Z,11.52
2022-10-18T21:18:36.752Z,6.97
2022-10-18T21:23:40.284Z,4.95
2022-10-18T21:26:07.387Z,5.60
2022-10-18T21:28:34.470Z,2.90
2022-10-18T21:31:15.914Z,3.25
2022-10-18T21:33:43.716Z,7.78
2022-10-18T21:36:10.725Z,2.53
2022-10-18T21:38:37.802Z,7.10
2022-10-18T21:41:09.783Z,8.50
2022-10-18T21:43:39.474Z,3.30
2022-10-18T21:46:05.991Z,4.18
2022-10-18T21:48:32.305Z,14.55
2022-10-18T21:51:06.118Z,6.53
2022-10-18T21:53:33.011Z,6.00
2022-10-18T21:56:07.900Z,3.72
2022-10-18T21:58:35.887Z,3.20
2022-10-18T22:01:09.986Z,3.80
2022-10-18T22:03:37.127Z,6.63
2022-10-18T22:06:13.107Z,13.35
2022-10-18T22:08:44.573Z,12.50
2022-10-18T22:11:12.765Z,12.25
2022-10-18T22:13:39.520Z,12.52
2022-10-18T22:16:07.301Z,7.67
2022-10-18T22:18:33.830Z,13.93
2022-10-18T22:21:03.430Z,8.45
2022-10-18T22:23:43.575Z,8.80
2022-10-18T22:26:22.295Z,6.88
2022-10-18T22:28:54.466Z,8.50
2022-10-18T22:31:22.911Z,9.05
2022-10-18T22:33:54.928Z,7.78
2022-10-18T22:36:21.858Z,13.10
2022-10-18T22:38:48.453Z,15.75
2022-10-18T22:41:14.851Z,10.93
2022-10-18T22:43:41.330Z,26.63
2022-10-18T22:46:10.668Z,17.25
2022-10-18T22:48:37.404Z,28.88
2022-10-18T22:51:04.377Z,18.67
2022-10-18T22:53:32.219Z,15.60
2022-10-18T22:55:58.802Z,19.23
2022-10-18T22:58:25.672Z,16.75
2022-10-18T23:00:59.230Z,9.52
2022-10-18T23:03:25.594Z,23.83
2022-10-18T23:05:52.059Z,11.57
2022-10-18T23:08:18.420Z,13.95
2022-10-18T23:10:44.796Z,12.60
2022-10-18T23:13:11.155Z,13.20
2022-10-18T23:15:41.003Z,11.30
2022-10-18T23:18:07.401Z,7.33
2022-10-18T23:20:33.784Z,9.82
2022-10-18T23:23:00.345Z,5.97
2022-10-18T23:25:27.180Z,22.63
2022-10-18T23:27:53.680Z,8.20
2022-10-18T23:30:20.041Z,22.20
2022-10-18T23:32:46.439Z,6.50
2022-10-18T23:35:12.796Z,14.48
2022-10-18T23:37:39.131Z,16.17
2022-10-18T23:40:06.046Z,12.85
2022-10-18T23:42:32.369Z,14.95
2022-10-18T23:44:58.753Z,14.45
2022-10-18T23:47:25.142Z,13.73
2022-10-18T23:49:51.476Z,9.15
2022-10-18T23:52:17.999Z,12.83
2022-10-18T23:57:15.731Z,10.32
2022-10-18T23:59:42.124Z,6.82
